sensor_id;sensor_type;location;lat;lon;timestamp;P1;durP1;ratioP1;P2;durP2;ratioP2
6791;SDS011;3433;48.730;9.108;2022-07-06T00:00:36;3.10;;;2.90;;
6791;SDS011;3433;48.730;9.108;2022-07-06T00:03:23;5.60;;;3.60;;
6791;SDS011;3433;48.730;9.108;2022-07-06T00:06:10;3.37;;;3.07;;
6791;SDS011;3433;48.730;9.108;2022-07-06T00:08:59;3.13;;;2.90;;
6791;SDS011;3433;48.730;9.108;2022-07-06T00:11:47;3.73;;;3.43;;
6791;SDS011;3433;48.730;9.108;2022-07-06T00:14:34;4.40;;;2.90;;
6791;SDS011;3433;48.730;9.108;2022-07-06T00:17:21;4.30;;;3.40;;
6791;SDS011;3433;48.730;9.108;2022-07-06T00:20:09;4.13;;;3.73;;
6791;SDS011;3433;48.730;9.108;2022-07-06T00:22:56;3.47;;;2.90;;
6791;SDS011;3433;48.730;9.108;2022-07-06T00:25:45;3.47;;;3.17;;
6791;SDS011;3433;48.730;9.108;2022-07-06T00:28:33;5.43;;;2.90;;
6791;SDS011;3433;48.730;9.108;2022-07-06T00:31:21;4.27;;;3.83;;
6791;SDS011;3433;48.730;9.108;2022-07-06T00:34:08;3.07;;;2.77;;
6791;SDS011;3433;48.730;9.108;2022-07-06T00:36:55;6.63;;;4.30;;
6791;SDS011;3433;48.730;9.108;2022-07-06T00:39:42;3.83;;;3.50;;
6791;SDS011;3433;48.730;9.108;2022-07-06T00:42:31;4.03;;;3.73;;
6791;SDS011;3433;48.730;9.108;2022-07-06T00:45:27;3.80;;;3.50;;
6791;SDS011;3433;48.730;9.108;2022-07-06T00:48:14;3.80;;;3.50;;
6791;SDS011;3433;48.730;9.108;2022-07-06T00:58:28;3.60;;;3.40;;
6791;SDS011;3433;48.730;9.108;2022-07-06T01:01:16;3.27;;;3.00;;
6791;SDS011;3433;48.730;9.108;2022-07-06T01:04:03;5.33;;;3.60;;
6791;SDS011;3433;48.730;9.108;2022-07-06T01:06:50;3.70;;;3.50;;
6791;SDS011;3433;48.730;9.108;2022-07-06T01:09:38;3.97;;;3.67;;
6791;SDS011;3433;48.730;9.108;2022-07-06T01:12:26;4.97;;;3.77;;
6791;SDS011;3433;48.730;9.108;2022-07-06T01:15:15;4.57;;;3.53;;
6791;SDS011;3433;48.730;9.108;2022-07-06T01:18:04;5.03;;;3.10;;
6791;SDS011;3433;48.730;9.108;2022-07-06T01:21:03;6.93;;;2.90;;
6791;SDS011;3433;48.730;9.108;2022-07-06T01:23:52;3.80;;;3.37;;
6791;SDS011;3433;48.730;9.108;2022-07-06T01:26:40;3.73;;;3.07;;
6791;SDS011;3433;48.730;9.108;2022-07-06T01:29:27;3.93;;;3.10;;
6791;SDS011;3433;48.730;9.108;2022-07-06T01:32:14;3.70;;;3.40;;
6791;SDS011;3433;48.730;9.108;2022-07-06T01:35:02;3.37;;;3.17;;
6791;SDS011;3433;48.730;9.108;2022-07-06T01:37:52;3.40;;;3.10;;
6791;SDS011;3433;48.730;9.108;2022-07-06T01:40:40;4.57;;;3.07;;
6791;SDS011;3433;48.730;9.108;2022-07-06T01:43:27;3.63;;;3.30;;
6791;SDS011;3433;48.730;9.108;2022-07-06T01:46:14;5.00;;;2.93;;
6791;SDS011;3433;48.730;9.108;2022-07-06T01:49:02;5.00;;;3.10;;
6791;SDS011;3433;48.730;9.108;2022-07-06T01:51:50;3.13;;;2.57;;
6791;SDS011;3433;48.730;9.108;2022-07-06T01:54:39;4.00;;;3.30;;
6791;SDS011;3433;48.730;9.108;2022-07-06T01:57:26;5.20;;;2.97;;
6791;SDS011;3433;48.730;9.108;2022-07-06T02:00:14;4.83;;;3.63;;
6791;SDS011;3433;48.730;9.108;2022-07-06T02:03:01;2.83;;;2.63;;
6791;SDS011;3433;48.730;9.108;2022-07-06T02:05:49;5.77;;;2.87;;
6791;SDS011;3433;48.730;9.108;2022-07-06T02:08:36;7.30;;;2.70;;
6791;SDS011;3433;48.730;9.108;2022-07-06T02:11:25;3.87;;;3.40;;
6791;SDS011;3433;48.730;9.108;2022-07-06T02:14:13;4.70;;;2.83;;
6791;SDS011;3433;48.730;9.108;2022-07-06T02:17:00;5.43;;;2.70;;
6791;SDS011;3433;48.730;9.108;2022-07-06T02:19:48;3.90;;;3.00;;
6791;SDS011;3433;48.730;9.108;2022-07-06T02:22:35;4.03;;;3.27;;
6791;SDS011;3433;48.730;9.108;2022-07-06T02:25:23;4.03;;;3.00;;
6791;SDS011;3433;48.730;9.108;2022-07-06T02:28:12;4.47;;;2.90;;
6791;SDS011;3433;48.730;9.108;2022-07-06T02:30:59;4.87;;;3.30;;
6791;SDS011;3433;48.730;9.108;2022-07-06T02:33:46;3.60;;;3.30;;
6791;SDS011;3433;48.730;9.108;2022-07-06T02:36:33;3.40;;;3.03;;
6791;SDS011;3433;48.730;9.108;2022-07-06T02:39:21;2.93;;;2.70;;
6791;SDS011;3433;48.730;9.108;2022-07-06T02:42:08;3.50;;;3.20;;
6791;SDS011;3433;48.730;9.108;2022-07-06T02:44:57;5.43;;;3.30;;
6791;SDS011;3433;48.730;9.108;2022-07-06T02:47:44;4.33;;;2.87;;
6791;SDS011;3433;48.730;9.108;2022-07-06T02:50:31;6.23;;;3.13;;
6791;SDS011;3433;48.730;9.108;2022-07-06T02:53:19;4.60;;;3.50;;
6791;SDS011;3433;48.730;9.108;2022-07-06T02:56:06;3.40;;;3.10;;
6791;SDS011;3433;48.730;9.108;2022-07-06T02:58:54;4.40;;;3.27;;
6791;SDS011;3433;48.730;9.108;2022-07-06T03:01:42;4.03;;;3.57;;
6791;SDS011;3433;48.730;9.108;2022-07-06T03:04:30;4.00;;;3.60;;
6791;SDS011;3433;48.730;9.108;2022-07-06T03:07:17;5.53;;;3.20;;
6791;SDS011;3433;48.730;9.108;2022-07-06T03:10:04;5.63;;;4.20;;
6791;SDS011;3433;48.730;9.108;2022-07-06T03:12:52;3.83;;;3.53;;
6791;SDS011;3433;48.730;9.108;2022-07-06T03:15:39;4.17;;;3.50;;
6791;SDS011;3433;48.730;9.108;2022-07-06T03:18:28;7.93;;;3.80;;
6791;SDS011;3433;48.730;9.108;2022-07-06T03:21:16;5.83;;;3.40;;
6791;SDS011;3433;48.730;9.108;2022-07-06T03:24:03;4.53;;;4.03;;
6791;SDS011;3433;48.730;9.108;2022-07-06T03:26:51;4.73;;;3.60;;
6791;SDS011;3433;48.730;9.108;2022-07-06T03:29:38;5.80;;;4.20;;
6791;SDS011;3433;48.730;9.108;2022-07-06T03:32:25;7.10;;;3.83;;
6791;SDS011;3433;48.730;9.108;2022-07-06T03:35:14;7.07;;;5.23;;
6791;SDS011;3433;48.730;9.108;2022-07-06T03:38:01;3.93;;;3.63;;
6791;SDS011;3433;48.730;9.108;2022-07-06T03:40:49;8.80;;;3.87;;
6791;SDS011;3433;48.730;9.108;2022-07-06T03:43:36;4.00;;;3.60;;
6791;SDS011;3433;48.730;9.108;2022-07-06T03:46:24;4.13;;;3.40;;
6791;SDS011;3433;48.730;9.108;2022-07-06T03:49:11;4.23;;;3.87;;
6791;SDS011;3433;48.730;9.108;2022-07-06T03:51:59;5.50;;;3.97;;
6791;SDS011;3433;48.730;9.108;2022-07-06T03:54:47;4.67;;;4.20;;
6791;SDS011;3433;48.730;9.108;2022-07-06T03:57:34;4.43;;;3.97;;
6791;SDS011;3433;48.730;9.108;2022-07-06T04:00:21;4.47;;;4.07;;
6791;SDS011;3433;48.730;9.108;2022-07-06T04:03:09;4.43;;;4.03;;
6791;SDS011;3433;48.730;9.108;2022-07-06T04:05:56;4.67;;;3.93;;
6791;SDS011;3433;48.730;9.108;2022-07-06T04:08:45;4.03;;;3.63;;
6791;SDS011;3433;48.730;9.108;2022-07-06T04:11:32;5.60;;;4.30;;
6791;SDS011;3433;48.730;9.108;2022-07-06T04:14:19;4.90;;;4.50;;
6791;SDS011;3433;48.730;9.108;2022-07-06T04:17:07;5.33;;;4.50;;
6791;SDS011;3433;48.730;9.108;2022-07-06T04:20:08;6.80;;;4.57;;
6791;SDS011;3433;48.730;9.108;2022-07-06T04:22:56;4.87;;;4.37;;
6791;SDS011;3433;48.730;9.108;2022-07-06T04:25:45;7.30;;;4.27;;
6791;SDS011;3433;48.730;9.108;2022-07-06T04:28:32;5.33;;;4.83;;
6791;SDS011;3433;48.730;9.108;2022-07-06T04:31:19;5.07;;;4.60;;
6791;SDS011;3433;48.730;9.108;2022-07-06T04:34:07;10.50;;;5.30;;
6791;SDS011;3433;48.730;9.108;2022-07-06T04:36:54;5.50;;;5.00;;
6791;SDS011;3433;48.730;9.108;2022-07-06T04:39:41;6.97;;;5.50;;
6791;SDS011;3433;48.730;9.108;2022-07-06T04:42:30;5.63;;;4.83;;
6791;SDS011;3433;48.730;9.108;2022-07-06T04:45:17;5.23;;;4.73;;
6791;SDS011;3433;48.730;9.108;2022-07-06T04:48:05;6.83;;;5.60;;
6791;SDS011;3433;48.730;9.108;2022-07-06T04:50:53;5.90;;;5.30;;
6791;SDS011;3433;48.730;9.108;2022-07-06T04:53:40;7.90;;;5.20;;
6791;SDS011;3433;48.730;9.108;2022-07-06T04:56:28;6.77;;;4.97;;
6791;SDS011;3433;48.730;9.108;2022-07-06T04:59:16;5.93;;;5.40;;
6791;SDS011;3433;48.730;9.108;2022-07-06T05:02:04;6.17;;;5.23;;
6791;SDS011;3433;48.730;9.108;2022-07-06T05:04:52;6.20;;;5.60;;
6791;SDS011;3433;48.730;9.108;2022-07-06T05:07:39;6.23;;;5.73;;
6791;SDS011;3433;48.730;9.108;2022-07-06T05:10:26;5.97;;;5.30;;
6791;SDS011;3433;48.730;9.108;2022-07-06T05:13:13;5.77;;;5.37;;
6791;SDS011;3433;48.730;9.108;2022-07-06T05:16:03;7.47;;;5.67;;
6791;SDS011;3433;48.730;9.108;2022-07-06T05:18:50;7.03;;;5.53;;
6791;SDS011;3433;48.730;9.108;2022-07-06T05:21:38;10.40;;;5.80;;
6791;SDS011;3433;48.730;9.108;2022-07-06T05:24:25;6.07;;;5.50;;
6791;SDS011;3433;48.730;9.108;2022-07-06T05:27:12;8.17;;;5.53;;
6791;SDS011;3433;48.730;9.108;2022-07-06T05:30:00;6.40;;;5.53;;
6791;SDS011;3433;48.730;9.108;2022-07-06T05:32:48;5.50;;;5.00;;
6791;SDS011;3433;48.730;9.108;2022-07-06T05:35:35;5.80;;;5.00;;
6791;SDS011;3433;48.730;9.108;2022-07-06T05:38:23;6.20;;;5.67;;
6791;SDS011;3433;48.730;9.108;2022-07-06T05:41:10;6.30;;;5.27;;
6791;SDS011;3433;48.730;9.108;2022-07-06T05:43:57;5.93;;;5.37;;
6791;SDS011;3433;48.730;9.108;2022-07-06T05:46:45;7.80;;;5.30;;
6791;SDS011;3433;48.730;9.108;2022-07-06T05:49:33;10.30;;;4.60;;
6791;SDS011;3433;48.730;9.108;2022-07-06T05:52:34;5.07;;;4.57;;
6791;SDS011;3433;48.730;9.108;2022-07-06T05:55:22;5.10;;;4.60;;
6791;SDS011;3433;48.730;9.108;2022-07-06T05:58:09;6.70;;;4.90;;
6791;SDS011;3433;48.730;9.108;2022-07-06T06:00:57;6.00;;;5.03;;
6791;SDS011;3433;48.730;9.108;2022-07-06T06:03:44;5.03;;;4.60;;
6791;SDS011;3433;48.730;9.108;2022-07-06T06:06:33;5.97;;;4.80;;
6791;SDS011;3433;48.730;9.108;2022-07-06T06:09:20;5.10;;;4.60;;
6791;SDS011;3433;48.730;9.108;2022-07-06T06:12:08;5.70;;;4.07;;
6791;SDS011;3433;48.730;9.108;2022-07-06T06:14:55;5.57;;;4.30;;
6791;SDS011;3433;48.730;9.108;2022-07-06T06:17:42;5.60;;;4.60;;
6791;SDS011;3433;48.730;9.108;2022-07-06T06:20:30;4.23;;;3.87;;
6791;SDS011;3433;48.730;9.108;2022-07-06T06:23:19;4.80;;;4.40;;
6791;SDS011;3433;48.730;9.108;2022-07-06T06:26:07;5.73;;;3.97;;
6791;SDS011;3433;48.730;9.108;2022-07-06T06:28:54;4.70;;;3.97;;
6791;SDS011;3433;48.730;9.108;2022-07-06T06:31:41;4.37;;;3.83;;
6791;SDS011;3433;48.730;9.108;2022-07-06T06:34:29;5.07;;;4.30;;
6791;SDS011;3433;48.730;9.108;2022-07-06T06:37:16;6.60;;;3.80;;
6791;SDS011;3433;48.730;9.108;2022-07-06T06:40:06;7.00;;;4.87;;
6791;SDS011;3433;48.730;9.108;2022-07-06T06:42:54;4.70;;;4.23;;
6791;SDS011;3433;48.730;9.108;2022-07-06T06:45:41;3.93;;;3.60;;
6791;SDS011;3433;48.730;9.108;2022-07-06T06:48:30;4.67;;;4.27;;
6791;SDS011;3433;48.730;9.108;2022-07-06T06:51:17;4.47;;;4.17;;
6791;SDS011;3433;48.730;9.108;2022-07-06T06:54:06;7.10;;;3.63;;
6791;SDS011;3433;48.730;9.108;2022-07-06T06:56:54;4.33;;;4.00;;
6791;SDS011;3433;48.730;9.108;2022-07-06T06:59:42;4.47;;;4.07;;
6791;SDS011;3433;48.730;9.108;2022-07-06T07:02:29;6.20;;;3.47;;
6791;SDS011;3433;48.730;9.108;2022-07-06T07:05:17;7.93;;;5.20;;
6791;SDS011;3433;48.730;9.108;2022-07-06T07:08:04;6.73;;;4.40;;
6791;SDS011;3433;48.730;9.108;2022-07-06T07:10:52;6.30;;;4.20;;
6791;SDS011;3433;48.730;9.108;2022-07-06T07:13:40;4.00;;;3.60;;
6791;SDS011;3433;48.730;9.108;2022-07-06T07:16:28;5.13;;;3.90;;
6791;SDS011;3433;48.730;9.108;2022-07-06T07:19:15;6.70;;;3.70;;
6791;SDS011;3433;48.730;9.108;2022-07-06T07:22:03;5.53;;;3.73;;
6791;SDS011;3433;48.730;9.108;2022-07-06T07:24:50;6.47;;;3.90;;
6791;SDS011;3433;48.730;9.108;2022-07-06T07:27:37;7.50;;;3.40;;
6791;SDS011;3433;48.730;9.108;2022-07-06T07:30:26;4.90;;;3.70;;
6791;SDS011;3433;48.730;9.108;2022-07-06T07:33:13;4.13;;;3.47;;
6791;SDS011;3433;48.730;9.108;2022-07-06T07:36:01;3.43;;;3.03;;
6791;SDS011;3433;48.730;9.108;2022-07-06T07:38:48;3.57;;;3.27;;
6791;SDS011;3433;48.730;9.108;2022-07-06T07:41:35;8.47;;;3.97;;
6791;SDS011;3433;48.730;9.108;2022-07-06T07:44:23;6.27;;;4.10;;
6791;SDS011;3433;48.730;9.108;2022-07-06T07:47:13;5.93;;;3.50;;
6791;SDS011;3433;48.730;9.108;2022-07-06T07:50:01;3.80;;;3.40;;
6791;SDS011;3433;48.730;9.108;2022-07-06T07:52:48;5.10;;;3.37;;
6791;SDS011;3433;48.730;9.108;2022-07-06T07:55:35;3.63;;;3.33;;
6791;SDS011;3433;48.730;9.108;2022-07-06T07:58:23;3.90;;;3.60;;
6791;SDS011;3433;48.730;9.108;2022-07-06T08:01:10;4.37;;;3.33;;
6791;SDS011;3433;48.730;9.108;2022-07-06T08:03:59;6.20;;;3.60;;
6791;SDS011;3433;48.730;9.108;2022-07-06T08:06:47;6.83;;;3.63;;
6791;SDS011;3433;48.730;9.108;2022-07-06T08:09:34;3.30;;;3.00;;
6791;SDS011;3433;48.730;9.108;2022-07-06T08:12:21;5.17;;;3.70;;
6791;SDS011;3433;48.730;9.108;2022-07-06T08:15:09;6.00;;;4.13;;
6791;SDS011;3433;48.730;9.108;2022-07-06T08:17:56;3.37;;;3.00;;
6791;SDS011;3433;48.730;9.108;2022-07-06T08:20:45;3.33;;;2.40;;
6791;SDS011;3433;48.730;9.108;2022-07-06T08:23:32;4.27;;;3.23;;
6791;SDS011;3433;48.730;9.108;2022-07-06T08:26:21;5.23;;;3.40;;
6791;SDS011;3433;48.730;9.108;2022-07-06T08:29:08;3.13;;;2.83;;
6791;SDS011;3433;48.730;9.108;2022-07-06T08:31:57;4.40;;;3.93;;
6791;SDS011;3433;48.730;9.108;2022-07-06T08:34:44;4.07;;;3.77;;
6791;SDS011;3433;48.730;9.108;2022-07-06T08:37:33;4.23;;;3.33;;
6791;SDS011;3433;48.730;9.108;2022-07-06T08:40:20;4.40;;;3.13;;
6791;SDS011;3433;48.730;9.108;2022-07-06T08:43:08;5.53;;;3.80;;
6791;SDS011;3433;48.730;9.108;2022-07-06T08:45:55;3.87;;;3.57;;
6791;SDS011;3433;48.730;9.108;2022-07-06T08:48:43;11.30;;;3.70;;
6791;SDS011;3433;48.730;9.108;2022-07-06T08:51:31;4.70;;;3.20;;
6791;SDS011;3433;48.730;9.108;2022-07-06T08:54:22;4.00;;;3.60;;
6791;SDS011;3433;48.730;9.108;2022-07-06T08:57:10;6.47;;;3.90;;
6791;SDS011;3433;48.730;9.108;2022-07-06T08:59:57;4.43;;;3.13;;
6791;SDS011;3433;48.730;9.108;2022-07-06T09:02:44;4.17;;;3.87;;
6791;SDS011;3433;48.730;9.108;2022-07-06T09:05:34;5.30;;;4.07;;
6791;SDS011;3433;48.730;9.108;2022-07-06T09:08:22;4.53;;;4.23;;
6791;SDS011;3433;48.730;9.108;2022-07-06T09:11:14;4.00;;;3.60;;
6791;SDS011;3433;48.730;9.108;2022-07-06T09:14:02;5.13;;;4.23;;
6791;SDS011;3433;48.730;9.108;2022-07-06T09:16:51;4.97;;;3.13;;
6791;SDS011;3433;48.730;9.108;2022-07-06T09:19:39;6.93;;;3.90;;
6791;SDS011;3433;48.730;9.108;2022-07-06T09:22:27;5.43;;;4.93;;
6791;SDS011;3433;48.730;9.108;2022-07-06T09:25:16;6.77;;;4.40;;
6791;SDS011;3433;48.730;9.108;2022-07-06T09:28:05;4.20;;;3.80;;
6791;SDS011;3433;48.730;9.108;2022-07-06T09:30:54;5.23;;;3.73;;
6791;SDS011;3433;48.730;9.108;2022-07-06T09:33:52;4.10;;;3.80;;
6791;SDS011;3433;48.730;9.108;2022-07-06T09:36:44;4.37;;;3.97;;
6791;SDS011;3433;48.730;9.108;2022-07-06T09:39:32;6.00;;;3.70;;
6791;SDS011;3433;48.730;9.108;2022-07-06T09:42:23;5.63;;;3.80;;
6791;SDS011;3433;48.730;9.108;2022-07-06T09:45:13;7.33;;;4.07;;
6791;SDS011;3433;48.730;9.108;2022-07-06T09:48:08;6.63;;;3.40;;
6791;SDS011;3433;48.730;9.108;2022-07-06T09:50:57;4.20;;;3.60;;
6791;SDS011;3433;48.730;9.108;2022-07-06T09:53:50;4.50;;;4.00;;
6791;SDS011;3433;48.730;9.108;2022-07-06T09:56:39;4.00;;;3.63;;
6791;SDS011;3433;48.730;9.108;2022-07-06T09:59:28;5.93;;;3.70;;
6791;SDS011;3433;48.730;9.108;2022-07-06T10:02:18;15.53;;;5.87;;
6791;SDS011;3433;48.730;9.108;2022-07-06T10:05:07;7.60;;;4.13;;
6791;SDS011;3433;48.730;9.108;2022-07-06T10:07:56;6.60;;;4.10;;
6791;SDS011;3433;48.730;9.108;2022-07-06T10:10:44;4.27;;;3.37;;
6791;SDS011;3433;48.730;9.108;2022-07-06T10:13:33;4.90;;;4.37;;
6791;SDS011;3433;48.730;9.108;2022-07-06T10:16:22;7.27;;;4.30;;
6791;SDS011;3433;48.730;9.108;2022-07-06T10:19:12;7.37;;;4.57;;
6791;SDS011;3433;48.730;9.108;2022-07-06T10:22:02;5.67;;;4.50;;
6791;SDS011;3433;48.730;9.108;2022-07-06T10:24:49;5.40;;;3.83;;
6791;SDS011;3433;48.730;9.108;2022-07-06T10:27:37;3.60;;;3.30;;
6791;SDS011;3433;48.730;9.108;2022-07-06T10:30:25;5.10;;;3.47;;
6791;SDS011;3433;48.730;9.108;2022-07-06T10:33:15;5.80;;;5.20;;
6791;SDS011;3433;48.730;9.108;2022-07-06T10:36:05;5.70;;;3.63;;
6791;SDS011;3433;48.730;9.108;2022-07-06T10:38:53;4.93;;;4.50;;
6791;SDS011;3433;48.730;9.108;2022-07-06T10:41:41;3.87;;;3.50;;
6791;SDS011;3433;48.730;9.108;2022-07-06T10:44:28;7.60;;;4.00;;
6791;SDS011;3433;48.730;9.108;2022-07-06T10:47:15;7.90;;;4.60;;
6791;SDS011;3433;48.730;9.108;2022-07-06T10:50:03;4.20;;;3.80;;
6791;SDS011;3433;48.730;9.108;2022-07-06T10:52:53;5.13;;;3.60;;
6791;SDS011;3433;48.730;9.108;2022-07-06T10:55:45;3.50;;;3.20;;
6791;SDS011;3433;48.730;9.108;2022-07-06T10:58:40;5.40;;;3.73;;
6791;SDS011;3433;48.730;9.108;2022-07-06T11:01:32;5.03;;;3.03;;
6791;SDS011;3433;48.730;9.108;2022-07-06T11:04:22;5.13;;;3.47;;
6791;SDS011;3433;48.730;9.108;2022-07-06T11:07:18;4.10;;;3.30;;
6791;SDS011;3433;48.730;9.108;2022-07-06T11:10:08;5.90;;;3.90;;
6791;SDS011;3433;48.730;9.108;2022-07-06T11:12:58;4.50;;;4.10;;
6791;SDS011;3433;48.730;9.108;2022-07-06T11:15:48;7.13;;;3.83;;
6791;SDS011;3433;48.730;9.108;2022-07-06T11:18:39;6.33;;;4.60;;
6791;SDS011;3433;48.730;9.108;2022-07-06T11:21:33;4.00;;;3.70;;
6791;SDS011;3433;48.730;9.108;2022-07-06T11:24:23;4.40;;;4.00;;
6791;SDS011;3433;48.730;9.108;2022-07-06T11:27:12;5.03;;;4.50;;
6791;SDS011;3433;48.730;9.108;2022-07-06T11:30:00;6.57;;;5.53;;
6791;SDS011;3433;48.730;9.108;2022-07-06T11:32:48;6.73;;;3.97;;
6791;SDS011;3433;48.730;9.108;2022-07-06T11:35:35;5.63;;;3.90;;
6791;SDS011;3433;48.730;9.108;2022-07-06T11:38:25;5.53;;;3.63;;
6791;SDS011;3433;48.730;9.108;2022-07-06T11:41:13;7.60;;;4.27;;
6791;SDS011;3433;48.730;9.108;2022-07-06T11:44:04;4.70;;;4.30;;
6791;SDS011;3433;48.730;9.108;2022-07-06T11:46:51;7.77;;;5.00;;
6791;SDS011;3433;48.730;9.108;2022-07-06T11:49:40;8.53;;;4.40;;
6791;SDS011;3433;48.730;9.108;2022-07-06T11:52:30;6.67;;;4.77;;
6791;SDS011;3433;48.730;9.108;2022-07-06T11:55:18;8.67;;;4.13;;
6791;SDS011;3433;48.730;9.108;2022-07-06T11:58:06;6.57;;;4.27;;
6791;SDS011;3433;48.730;9.108;2022-07-06T12:03:58;6.90;;;4.77;;
6791;SDS011;3433;48.730;9.108;2022-07-06T12:06:46;7.23;;;4.87;;
6791;SDS011;3433;48.730;9.108;2022-07-06T12:09:33;4.57;;;4.17;;
6791;SDS011;3433;48.730;9.108;2022-07-06T12:12:22;5.00;;;3.97;;
6791;SDS011;3433;48.730;9.108;2022-07-06T12:15:11;9.13;;;4.73;;
6791;SDS011;3433;48.730;9.108;2022-07-06T12:17:59;6.63;;;4.53;;
6791;SDS011;3433;48.730;9.108;2022-07-06T12:20:46;7.00;;;4.40;;
6791;SDS011;3433;48.730;9.108;2022-07-06T12:23:41;6.87;;;4.53;;
6791;SDS011;3433;48.730;9.108;2022-07-06T12:26:38;5.23;;;4.67;;
6791;SDS011;3433;48.730;9.108;2022-07-06T12:29:26;6.40;;;5.80;;
6791;SDS011;3433;48.730;9.108;2022-07-06T12:32:13;8.43;;;4.83;;
6791;SDS011;3433;48.730;9.108;2022-07-06T12:35:04;5.73;;;4.60;;
6791;SDS011;3433;48.730;9.108;2022-07-06T12:37:55;5.77;;;4.53;;
6791;SDS011;3433;48.730;9.108;2022-07-06T12:40:43;7.07;;;4.07;;
6791;SDS011;3433;48.730;9.108;2022-07-06T12:43:34;7.70;;;3.97;;
6791;SDS011;3433;48.730;9.108;2022-07-06T12:46:22;7.40;;;4.37;;
6791;SDS011;3433;48.730;9.108;2022-07-06T12:49:16;6.70;;;4.30;;
6791;SDS011;3433;48.730;9.108;2022-07-06T12:52:10;5.60;;;4.07;;
6791;SDS011;3433;48.730;9.108;2022-07-06T12:54:59;5.80;;;3.87;;
6791;SDS011;3433;48.730;9.108;2022-07-06T12:57:48;8.80;;;4.13;;
6791;SDS011;3433;48.730;9.108;2022-07-06T13:00:43;5.80;;;3.90;;
6791;SDS011;3433;48.730;9.108;2022-07-06T13:03:37;3.80;;;3.50;;
6791;SDS011;3433;48.730;9.108;2022-07-06T13:06:32;4.03;;;3.53;;
6791;SDS011;3433;48.730;9.108;2022-07-06T13:09:23;4.60;;;3.07;;
6791;SDS011;3433;48.730;9.108;2022-07-06T13:12:11;4.30;;;3.20;;
6791;SDS011;3433;48.730;9.108;2022-07-06T13:14:58;5.30;;;3.60;;
6791;SDS011;3433;48.730;9.108;2022-07-06T13:17:46;3.57;;;2.97;;
6791;SDS011;3433;48.730;9.108;2022-07-06T13:20:33;5.40;;;3.70;;
6791;SDS011;3433;48.730;9.108;2022-07-06T13:23:20;3.40;;;3.10;;
6791;SDS011;3433;48.730;9.108;2022-07-06T13:26:09;6.17;;;3.97;;
6791;SDS011;3433;48.730;9.108;2022-07-06T13:28:56;7.53;;;3.83;;
6791;SDS011;3433;48.730;9.108;2022-07-06T13:31:44;3.93;;;3.50;;
6791;SDS011;3433;48.730;9.108;2022-07-06T13:34:31;3.43;;;3.13;;
6791;SDS011;3433;48.730;9.108;2022-07-06T13:37:20;6.03;;;3.47;;
6791;SDS011;3433;48.730;9.108;2022-07-06T13:40:08;3.20;;;2.90;;
6791;SDS011;3433;48.730;9.108;2022-07-06T13:42:57;3.60;;;3.30;;
6791;SDS011;3433;48.730;9.108;2022-07-06T13:45:45;3.50;;;3.17;;
6791;SDS011;3433;48.730;9.108;2022-07-06T13:48:33;3.83;;;2.93;;
6791;SDS011;3433;48.730;9.108;2022-07-06T13:51:21;4.23;;;3.37;;
6791;SDS011;3433;48.730;9.108;2022-07-06T13:54:08;3.87;;;3.47;;
6791;SDS011;3433;48.730;9.108;2022-07-06T13:56:56;6.87;;;3.30;;
6791;SDS011;3433;48.730;9.108;2022-07-06T13:59:45;4.60;;;3.20;;
6791;SDS011;3433;48.730;9.108;2022-07-06T14:02:32;4.40;;;4.00;;
6791;SDS011;3433;48.730;9.108;2022-07-06T14:05:19;4.37;;;3.80;;
6791;SDS011;3433;48.730;9.108;2022-07-06T14:08:07;4.90;;;3.20;;
6791;SDS011;3433;48.730;9.108;2022-07-06T14:10:54;3.40;;;3.10;;
6791;SDS011;3433;48.730;9.108;2022-07-06T14:13:42;2.70;;;2.53;;
6791;SDS011;3433;48.730;9.108;2022-07-06T14:16:31;4.10;;;3.13;;
6791;SDS011;3433;48.730;9.108;2022-07-06T14:19:19;8.10;;;3.20;;
6791;SDS011;3433;48.730;9.108;2022-07-06T14:22:07;4.57;;;3.03;;
6791;SDS011;3433;48.730;9.108;2022-07-06T14:24:54;3.77;;;3.10;;
6791;SDS011;3433;48.730;9.108;2022-07-06T14:27:42;5.73;;;3.73;;
6791;SDS011;3433;48.730;9.108;2022-07-06T14:30:29;5.50;;;3.30;;
6791;SDS011;3433;48.730;9.108;2022-07-06T14:33:18;4.60;;;3.23;;
6791;SDS011;3433;48.730;9.108;2022-07-06T14:36:06;3.30;;;3.00;;
6791;SDS011;3433;48.730;9.108;2022-07-06T14:38:53;3.93;;;3.10;;
6791;SDS011;3433;48.730;9.108;2022-07-06T14:41:40;6.80;;;2.73;;
6791;SDS011;3433;48.730;9.108;2022-07-06T14:44:28;4.83;;;3.33;;
6791;SDS011;3433;48.730;9.108;2022-07-06T14:47:15;2.93;;;2.73;;
6791;SDS011;3433;48.730;9.108;2022-07-06T14:50:04;3.23;;;2.90;;
6791;SDS011;3433;48.730;9.108;2022-07-06T14:52:52;4.73;;;2.83;;
6791;SDS011;3433;48.730;9.108;2022-07-06T14:55:40;3.83;;;3.13;;
6791;SDS011;3433;48.730;9.108;2022-07-06T14:58:28;3.00;;;2.80;;
6791;SDS011;3433;48.730;9.108;2022-07-06T15:01:15;3.07;;;2.87;;
6791;SDS011;3433;48.730;9.108;2022-07-06T15:04:02;3.67;;;3.37;;
6791;SDS011;3433;48.730;9.108;2022-07-06T15:06:51;2.60;;;2.40;;
6791;SDS011;3433;48.730;9.108;2022-07-06T15:09:40;4.47;;;4.07;;
6791;SDS011;3433;48.730;9.108;2022-07-06T15:12:27;3.97;;;3.13;;
6791;SDS011;3433;48.730;9.108;2022-07-06T15:15:14;3.30;;;2.80;;
6791;SDS011;3433;48.730;9.108;2022-07-06T15:18:02;4.83;;;2.77;;
6791;SDS011;3433;48.730;9.108;2022-07-06T15:20:49;3.00;;;2.80;;
6791;SDS011;3433;48.730;9.108;2022-07-06T15:23:38;3.37;;;2.70;;
6791;SDS011;3433;48.730;9.108;2022-07-06T15:26:25;2.90;;;2.70;;
6791;SDS011;3433;48.730;9.108;2022-07-06T15:29:12;3.83;;;2.63;;
6791;SDS011;3433;48.730;9.108;2022-07-06T15:32:00;4.73;;;2.43;;
6791;SDS011;3433;48.730;9.108;2022-07-06T15:34:47;2.77;;;2.43;;
6791;SDS011;3433;48.730;9.108;2022-07-06T15:37:35;7.50;;;2.87;;
6791;SDS011;3433;48.730;9.108;2022-07-06T15:40:24;3.63;;;2.50;;
6791;SDS011;3433;48.730;9.108;2022-07-06T15:43:13;4.37;;;2.70;;
6791;SDS011;3433;48.730;9.108;2022-07-06T15:46:01;3.27;;;2.70;;
6791;SDS011;3433;48.730;9.108;2022-07-06T15:48:49;3.63;;;2.90;;
6791;SDS011;3433;48.730;9.108;2022-07-06T15:51:37;4.87;;;2.67;;
6791;SDS011;3433;48.730;9.108;2022-07-06T15:54:24;3.03;;;2.73;;
6791;SDS011;3433;48.730;9.108;2022-07-06T15:57:13;3.73;;;2.73;;
6791;SDS011;3433;48.730;9.108;2022-07-06T16:00:01;5.47;;;2.60;;
6791;SDS011;3433;48.730;9.108;2022-07-06T16:02:49;3.20;;;2.90;;
6791;SDS011;3433;48.730;9.108;2022-07-06T16:05:37;6.93;;;2.53;;
6791;SDS011;3433;48.730;9.108;2022-07-06T16:08:24;3.30;;;1.93;;
6791;SDS011;3433;48.730;9.108;2022-07-06T16:11:11;4.70;;;2.43;;
6791;SDS011;3433;48.730;9.108;2022-07-06T16:14:00;2.40;;;2.00;;
6791;SDS011;3433;48.730;9.108;2022-07-06T16:16:48;2.70;;;1.93;;
6791;SDS011;3433;48.730;9.108;2022-07-06T16:19:35;2.67;;;1.90;;
6791;SDS011;3433;48.730;9.108;2022-07-06T16:22:22;2.40;;;2.20;;
6791;SDS011;3433;48.730;9.108;2022-07-06T16:25:10;2.67;;;2.20;;
6791;SDS011;3433;48.730;9.108;2022-07-06T16:27:58;4.10;;;2.50;;
6791;SDS011;3433;48.730;9.108;2022-07-06T16:30:46;6.57;;;2.90;;
6791;SDS011;3433;48.730;9.108;2022-07-06T16:33:34;2.70;;;2.50;;
6791;SDS011;3433;48.730;9.108;2022-07-06T16:36:22;4.07;;;3.00;;
6791;SDS011;3433;48.730;9.108;2022-07-06T16:39:10;2.20;;;2.10;;
6791;SDS011;3433;48.730;9.108;2022-07-06T16:41:57;6.90;;;2.33;;
6791;SDS011;3433;48.730;9.108;2022-07-06T16:44:45;2.57;;;2.27;;
6791;SDS011;3433;48.730;9.108;2022-07-06T16:47:34;4.20;;;2.23;;
6791;SDS011;3433;48.730;9.108;2022-07-06T16:50:23;2.80;;;2.23;;
6791;SDS011;3433;48.730;9.108;2022-07-06T16:53:10;3.10;;;2.13;;
6791;SDS011;3433;48.730;9.108;2022-07-06T16:55:58;4.50;;;2.10;;
6791;SDS011;3433;48.730;9.108;2022-07-06T16:58:45;2.20;;;2.10;;
6791;SDS011;3433;48.730;9.108;2022-07-06T17:01:32;3.67;;;2.47;;
6791;SDS011;3433;48.730;9.108;2022-07-06T17:04:21;3.20;;;2.20;;
6791;SDS011;3433;48.730;9.108;2022-07-06T17:07:08;4.57;;;2.93;;
6791;SDS011;3433;48.730;9.108;2022-07-06T17:09:56;5.13;;;2.37;;
6791;SDS011;3433;48.730;9.108;2022-07-06T17:12:46;2.10;;;1.97;;
6791;SDS011;3433;48.730;9.108;2022-07-06T17:15:33;2.67;;;2.47;;
6791;SDS011;3433;48.730;9.108;2022-07-06T17:18:20;2.70;;;2.50;;
6791;SDS011;3433;48.730;9.108;2022-07-06T17:21:09;2.40;;;2.20;;
6791;SDS011;3433;48.730;9.108;2022-07-06T17:23:57;3.00;;;2.53;;
6791;SDS011;3433;48.730;9.108;2022-07-06T17:26:44;2.60;;;2.20;;
6791;SDS011;3433;48.730;9.108;2022-07-06T17:29:31;3.03;;;2.70;;
6791;SDS011;3433;48.730;9.108;2022-07-06T17:32:18;2.73;;;2.10;;
6791;SDS011;3433;48.730;9.108;2022-07-06T17:35:06;2.63;;;2.30;;